createdAt,value
2023-05-09T00:00:53.494Z,1296.00
2023-05-09T00:01:53.545Z,1299.00
2023-05-09T00:02:53.622Z,1297.00
2023-05-09T00:03:53.608Z,1288.00
2023-05-09T00:04:53.677Z,1290.00
2023-05-09T00:05:53.639Z,1288.00
2023-05-09T00:06:53.651Z,1291.00
2023-05-09T00:07:53.673Z,1277.00
2023-05-09T00:08:53.729Z,1274.00
2023-05-09T00:09:53.722Z,1277.00
2023-05-09T00:10:53.731Z,1287.00
2023-05-09T00:11:53.750Z,1287.00
2023-05-09T00:12:53.763Z,1275.00
2023-05-09T00:13:53.797Z,1275.00
2023-05-09T00:14:53.898Z,1273.00
2023-05-09T00:15:53.875Z,1280.00
2023-05-09T00:16:53.947Z,1277.00
2023-05-09T00:17:53.929Z,1279.00
2023-05-09T00:18:53.917Z,1286.00
2023-05-09T00:19:53.883Z,1286.00
2023-05-09T00:20:53.955Z,1266.00
2023-05-09T00:21:54.161Z,1273.00
2023-05-09T00:22:53.966Z,1287.00
2023-05-09T00:23:53.964Z,1278.00
2023-05-09T00:24:54.038Z,1271.00
2023-05-09T00:25:54.033Z,1272.00
2023-05-09T00:26:54.050Z,1274.00
2023-05-09T00:27:54.156Z,1267.00
2023-05-09T00:28:54.121Z,1276.00
2023-05-09T00:29:54.121Z,1275.00
2023-05-09T00:30:54.196Z,1273.00
2023-05-09T00:31:54.218Z,1270.00
2023-05-09T00:32:54.250Z,1264.00
2023-05-09T00:33:54.264Z,1255.00
2023-05-09T00:34:54.264Z,1269.00
2023-05-09T00:35:54.286Z,1268.00
2023-05-09T00:36:54.278Z,1258.00
2023-05-09T00:37:54.268Z,1268.00
2023-05-09T00:38:54.356Z,1267.00
2023-05-09T00:39:54.342Z,1268.00
2023-05-09T00:40:54.340Z,1262.00
2023-05-09T00:41:54.362Z,1265.00
2023-05-09T00:42:54.421Z,1248.00
2023-05-09T00:43:54.476Z,1258.00
2023-05-09T00:44:54.442Z,1263.00
2023-05-09T00:45:54.490Z,1258.00
2023-05-09T00:46:54.578Z,1257.00
2023-05-09T00:47:54.506Z,1262.00
2023-05-09T00:48:54.503Z,1272.00
2023-05-09T00:49:54.621Z,1260.00
2023-05-09T00:50:54.567Z,1267.00
2023-05-09T00:51:54.565Z,1256.00
2023-05-09T00:52:54.568Z,1263.00
2023-05-09T00:53:54.624Z,1261.00
2023-05-09T00:54:54.641Z,1263.00
2023-05-09T00:55:54.639Z,1255.00
2023-05-09T00:56:54.661Z,1248.00
2023-05-09T00:57:54.686Z,1261.00
2023-05-09T00:58:54.666Z,1255.00
2023-05-09T00:59:54.739Z,1258.00
2023-05-09T01:00:54.783Z,1261.00
2023-05-09T01:01:54.826Z,1261.00
2023-05-09T01:02:54.956Z,1251.00
2023-05-09T01:03:54.805Z,1258.00
2023-05-09T01:04:54.803Z,1263.00
2023-05-09T01:05:54.813Z,1255.00
2023-05-09T01:06:55.028Z,1241.00
2023-05-09T01:07:54.893Z,1254.00
2023-05-09T01:08:54.902Z,1255.00
2023-05-09T01:09:54.900Z,1235.00
2023-05-09T01:10:54.952Z,1257.00
2023-05-09T01:11:54.973Z,1253.00
2023-05-09T01:12:55.078Z,1247.00
2023-05-09T01:13:54.963Z,1245.00
2023-05-09T01:14:54.991Z,1258.00
2023-05-09T01:15:55.153Z,1238.00
2023-05-09T01:16:55.060Z,1252.00
2023-05-09T01:17:55.093Z,1253.00
2023-05-09T01:18:55.157Z,1245.00
2023-05-09T01:19:55.080Z,1247.00
2023-05-09T01:20:55.102Z,1241.00
2023-05-09T01:21:55.172Z,1254.00
2023-05-09T01:22:55.199Z,1244.00
2023-05-09T01:23:55.213Z,1239.00
2023-05-09T01:24:55.192Z,1244.00
2023-05-09T01:25:55.232Z,1238.00
2023-05-09T01:26:55.253Z,1235.00
2023-05-09T01:27:55.270Z,1228.00
2023-05-09T01:28:55.252Z,1248.00
2023-05-09T01:29:56.280Z,1251.00
2023-05-09T01:30:55.265Z,1236.00
2023-05-09T01:31:55.297Z,1242.00
2023-05-09T01:32:55.400Z,1236.00
2023-05-09T01:33:55.365Z,1236.00
2023-05-09T01:34:55.428Z,1234.00
2023-05-09T01:35:55.363Z,1239.00
2023-05-09T01:36:55.366Z,1230.00
2023-05-09T01:37:55.435Z,1223.00
2023-05-09T01:38:55.428Z,1237.00
2023-05-09T01:39:55.440Z,1229.00
2023-05-09T01:40:55.498Z,1239.00
2023-05-09T01:41:55.519Z,1232.00
2023-05-09T01:42:55.572Z,1231.00
2023-05-09T01:43:55.560Z,1227.00
2023-05-09T01:44:55.575Z,1238.00
2023-05-09T01:45:55.584Z,1233.00
2023-05-09T01:46:55.686Z,1216.00
2023-05-09T01:47:55.662Z,1229.00
2023-05-09T01:48:55.625Z,1231.00
2023-05-09T01:49:55.629Z,1222.00
2023-05-09T01:50:55.822Z,1229.00
2023-05-09T01:51:55.715Z,1229.00
2023-05-09T01:52:55.733Z,1227.00
2023-05-09T01:53:55.794Z,1225.00
2023-05-09T01:54:55.804Z,1209.00
2023-05-09T01:55:55.816Z,1214.00
2023-05-09T01:56:55.836Z,1226.00
2023-05-09T01:57:55.779Z,1227.00
2023-05-09T01:58:55.880Z,1224.00
2023-05-09T01:59:55.891Z,1218.00
2023-05-09T02:00:55.927Z,1221.00
2023-05-09T02:01:55.927Z,1211.00
2023-05-09T02:02:56.200Z,1219.00
2023-05-09T02:03:55.916Z,1220.00
2023-05-09T02:04:56.008Z,1208.00
2023-05-09T02:05:55.960Z,1216.00
2023-05-09T02:06:56.096Z,1220.00
2023-05-09T02:07:56.048Z,1224.00
2023-05-09T02:08:56.040Z,1208.00
2023-05-09T02:09:56.069Z,1210.00
2023-05-09T02:10:56.154Z,1215.00
2023-05-09T02:11:56.120Z,1218.00
2023-05-09T02:12:56.242Z,1203.00
2023-05-09T02:13:56.290Z,1218.00
2023-05-09T02:14:56.175Z,1204.00
2023-05-09T02:15:56.193Z,1218.00
2023-05-09T02:16:56.300Z,1210.00
2023-05-09T02:17:56.874Z,1211.00
2023-05-09T02:18:56.338Z,1211.00
2023-05-09T02:19:56.327Z,1202.00
2023-05-09T02:20:56.461Z,1211.00
2023-05-09T02:21:56.631Z,1222.00
2023-05-09T02:22:56.547Z,1219.00
2023-05-09T02:23:56.452Z,1219.00
2023-05-09T02:24:56.526Z,1216.00
2023-05-09T02:25:56.510Z,1214.00
2023-05-09T02:26:56.514Z,1221.00
2023-05-09T02:27:56.513Z,1210.00
2023-05-09T02:28:56.583Z,1215.00
2023-05-09T02:29:56.590Z,1204.00
2023-05-09T02:30:56.696Z,1212.00
2023-05-09T02:31:56.616Z,1215.00
2023-05-09T02:32:56.695Z,1219.00
2023-05-09T02:33:56.676Z,1211.00
2023-05-09T02:34:56.679Z,1221.00
2023-05-09T02:35:56.709Z,1231.00
2023-05-09T02:36:56.745Z,1222.00
2023-05-09T02:37:56.754Z,1214.00
2023-05-09T02:38:56.832Z,1208.00
2023-05-09T02:39:56.852Z,1216.00
2023-05-09T02:40:56.771Z,1219.00
2023-05-09T02:41:56.874Z,1214.00
2023-05-09T02:42:56.882Z,1214.00
2023-05-09T02:43:56.960Z,1211.00
2023-05-09T02:44:56.927Z,1212.00
2023-05-09T02:45:56.962Z,1216.00
2023-05-09T02:46:56.879Z,1215.00
2023-05-09T02:47:57.922Z,1217.00
2023-05-09T02:48:57.034Z,1201.00
2023-05-09T02:49:56.941Z,1218.00
2023-05-09T02:50:56.938Z,1212.00
2023-05-09T02:51:56.955Z,1209.00
2023-05-09T02:52:57.037Z,1207.00
2023-05-09T02:53:56.988Z,1214.00
2023-05-09T02:54:57.085Z,1203.00
2023-05-09T02:55:57.181Z,1216.00
2023-05-09T02:56:57.086Z,1216.00
2023-05-09T02:58:05.652Z,1215.00
2023-05-09T02:58:58.056Z,1216.00
2023-05-09T02:59:57.118Z,1217.00
2023-05-09T03:00:57.111Z,1215.00
2023-05-09T03:01:57.104Z,1221.00
2023-05-09T03:02:57.140Z,1231.00
2023-05-09T03:03:57.120Z,1219.00
2023-05-09T03:04:57.058Z,1217.00
2023-05-09T03:05:57.038Z,1217.00
2023-05-09T03:06:57.097Z,1220.00
2023-05-09T03:07:57.058Z,1217.00
2023-05-09T03:08:57.046Z,1210.00
2023-05-09T03:09:57.018Z,1213.00
2023-05-09T03:10:57.082Z,1224.00
2023-05-09T03:11:57.007Z,1213.00
2023-05-09T03:12:57.042Z,1211.00
2023-05-09T03:13:57.021Z,1208.00
2023-05-09T03:14:56.975Z,1216.00
2023-05-09T03:15:56.994Z,1210.00
2023-05-09T03:16:56.959Z,1210.00
2023-05-09T03:17:56.975Z,1213.00
2023-05-09T03:18:57.019Z,1216.00
2023-05-09T03:19:57.021Z,1211.00
2023-05-09T03:20:57.079Z,1219.00
2023-05-09T03:21:57.074Z,1218.00
2023-05-09T03:22:57.115Z,1217.00
2023-05-09T03:23:57.168Z,1205.00
2023-05-09T03:24:57.097Z,1209.00
2023-05-09T03:25:57.119Z,1200.00
2023-05-09T03:26:57.218Z,1214.00
2023-05-09T03:27:57.140Z,1214.00
2023-05-09T03:28:57.222Z,1213.00
2023-05-09T03:29:57.253Z,1211.00
2023-05-09T03:30:57.250Z,1211.00
2023-05-09T03:31:57.272Z,1204.00
2023-05-09T03:32:57.302Z,1204.00
2023-05-09T03:33:57.318Z,1218.00
2023-05-09T03:34:57.326Z,1215.00
2023-05-09T03:35:57.333Z,1214.00
2023-05-09T03:36:57.340Z,1203.00
2023-05-09T03:37:57.413Z,1201.00
2023-05-09T03:38:57.409Z,1213.00
2023-05-09T03:39:57.402Z,1208.00
2023-05-09T03:40:57.533Z,1219.00
2023-05-09T03:41:57.503Z,1210.00
2023-05-09T03:42:57.600Z,1206.00
2023-05-09T03:43:57.587Z,1204.00
2023-05-09T03:44:57.530Z,1198.00
2023-05-09T03:45:57.608Z,1212.00
2023-05-09T03:46:57.712Z,1212.00
2023-05-09T03:47:57.649Z,1213.00
2023-05-09T03:48:57.686Z,1221.00
2023-05-09T03:49:57.659Z,1208.00
2023-05-09T03:50:57.719Z,1219.00
2023-05-09T03:51:57.753Z,1214.00
2023-05-09T03:52:57.823Z,1209.00
2023-05-09T03:53:57.788Z,1214.00
2023-05-09T03:54:57.881Z,1216.00
2023-05-09T03:55:57.796Z,1209.00
2023-05-09T03:56:57.892Z,1206.00
2023-05-09T03:57:57.888Z,1210.00
2023-05-09T03:58:57.976Z,1213.00
2023-05-09T03:59:57.964Z,1210.00
2023-05-09T04:00:57.940Z,1216.00
2023-05-09T04:01:57.974Z,1203.00
2023-05-09T04:02:58.068Z,1208.00
2023-05-09T04:03:58.099Z,1217.00
2023-05-09T04:04:58.025Z,1207.00
2023-05-09T04:05:58.030Z,1214.00
2023-05-09T04:06:58.051Z,1223.00
2023-05-09T04:07:58.079Z,1223.00
2023-05-09T04:08:58.104Z,1219.00
2023-05-09T04:09:58.106Z,1236.00
2023-05-09T04:10:58.115Z,1237.00
2023-05-09T04:11:58.157Z,1231.00
2023-05-09T04:12:58.221Z,1215.00
2023-05-09T04:13:58.270Z,1197.00
2023-05-09T04:14:58.334Z,1173.00
2023-05-09T04:15:58.318Z,1168.00
2023-05-09T04:16:58.355Z,1138.00
2023-05-09T04:17:58.362Z,1140.00
2023-05-09T04:18:58.342Z,1131.00
2023-05-09T04:19:58.404Z,1120.00
2023-05-09T04:20:58.363Z,1113.00
2023-05-09T04:21:58.421Z,1122.00
2023-05-09T04:22:58.477Z,1105.00
2023-05-09T04:23:58.470Z,1085.00
2023-05-09T04:24:58.485Z,1074.00
2023-05-09T04:25:58.536Z,1069.00
2023-05-09T04:26:58.537Z,1068.00
2023-05-09T04:27:58.614Z,1048.00
2023-05-09T04:28:58.620Z,1042.00
2023-05-09T04:29:58.618Z,1041.00
2023-05-09T04:30:58.811Z,1041.00
2023-05-09T04:31:58.839Z,1036.00
2023-05-09T04:32:58.727Z,1030.00
2023-05-09T04:33:58.704Z,1017.00
2023-05-09T04:34:58.688Z,1027.00
2023-05-09T04:35:58.746Z,1019.00
2023-05-09T04:36:58.833Z,1023.00
2023-05-09T04:37:58.774Z,1011.00
2023-05-09T04:38:58.793Z,1005.00
2023-05-09T04:39:58.827Z,1024.00
2023-05-09T04:40:58.795Z,1023.00
2023-05-09T04:41:58.818Z,1027.00
2023-05-09T04:42:58.898Z,1020.00
2023-05-09T04:43:58.883Z,1021.00
2023-05-09T04:44:58.953Z,1020.00
2023-05-09T04:45:59.005Z,1034.00
2023-05-09T04:46:59.021Z,1022.00
2023-05-09T04:47:59.040Z,1034.00
2023-05-09T04:48:59.009Z,1026.00
2023-05-09T04:49:59.027Z,1027.00
2023-05-09T04:50:59.067Z,1029.00
2023-05-09T04:51:59.081Z,1028.00
2023-05-09T04:52:59.082Z,1032.00
2023-05-09T04:53:59.102Z,1022.00
2023-05-09T04:54:59.214Z,1022.00
2023-05-09T04:55:59.159Z,1031.00
2023-05-09T04:57:09.832Z,1029.00
2023-05-09T04:58:00.157Z,1030.00
2023-05-09T04:58:59.115Z,1034.00
2023-05-09T04:59:59.145Z,1037.00
2023-05-09T05:00:59.139Z,1036.00
2023-05-09T05:01:59.197Z,1033.00
2023-05-09T05:02:59.345Z,1012.00
2023-05-09T05:03:59.113Z,1011.00
2023-05-09T05:05:17.964Z,996.00
2023-05-09T05:06:00.116Z,997.00
2023-05-09T05:06:59.067Z,1000.00
2023-05-09T05:07:59.074Z,1004.00
2023-05-09T05:08:59.095Z,1008.00
2023-05-09T05:09:59.101Z,1027.00
2023-05-09T05:10:59.063Z,1032.00
2023-05-09T05:12:02.830Z,1032.00
2023-05-09T05:12:59.086Z,1033.00
2023-05-09T05:13:59.031Z,1036.00
2023-05-09T05:14:59.027Z,1042.00
2023-05-09T05:15:59.150Z,1055.00
2023-05-09T05:16:59.004Z,1064.00
2023-05-09T05:17:59.034Z,1064.00
2023-05-09T05:18:59.098Z,1071.00
2023-05-09T05:19:59.020Z,1083.00
2023-05-09T05:20:58.984Z,1078.00
2023-05-09T05:21:58.968Z,1095.00
2023-05-09T05:22:58.995Z,1099.00
2023-05-09T05:23:58.987Z,1108.00
2023-05-09T05:24:58.997Z,1117.00
2023-05-09T05:25:58.919Z,1139.00
2023-05-09T05:26:58.964Z,1152.00
2023-05-09T05:27:58.948Z,1159.00
2023-05-09T05:28:58.926Z,1172.00
2023-05-09T05:29:58.942Z,1207.00
2023-05-09T05:30:59.130Z,1227.00
2023-05-09T05:31:58.942Z,1261.00
2023-05-09T05:32:59.088Z,1262.00
2023-05-09T05:33:58.916Z,1275.00
2023-05-09T05:34:58.997Z,1269.00
2023-05-09T05:35:58.869Z,1267.00
2023-05-09T05:36:58.870Z,1285.00
2023-05-09T05:37:59.072Z,1254.00
2023-05-09T05:38:58.900Z,1248.00
2023-05-09T05:39:58.830Z,1225.00
2023-05-09T05:40:58.857Z,1219.00
2023-05-09T05:41:58.944Z,1216.00
2023-05-09T05:42:58.841Z,1172.00
2023-05-09T05:43:58.832Z,1163.00
2023-05-09T05:44:58.829Z,1138.00
2023-05-09T05:45:58.853Z,1148.00
2023-05-09T05:46:58.915Z,1133.00
2023-05-09T05:47:59.832Z,1127.00
2023-05-09T05:48:58.947Z,1152.00
2023-05-09T05:49:58.815Z,1152.00
2023-05-09T05:50:58.921Z,1155.00
2023-05-09T05:51:58.786Z,1158.00
2023-05-09T05:52:58.765Z,1165.00
2023-05-09T05:53:58.780Z,1165.00
2023-05-09T05:54:58.732Z,1171.00
2023-05-09T05:55:58.746Z,1172.00
2023-05-09T05:56:59.272Z,1182.00
2023-05-09T05:57:58.699Z,1172.00
2023-05-09T05:58:58.716Z,1188.00
2023-05-09T05:59:58.718Z,1185.00
2023-05-09T06:00:58.732Z,1181.00
2023-05-09T06:01:58.868Z,1176.00
2023-05-09T06:02:58.716Z,1169.00
2023-05-09T06:03:58.867Z,1155.00
2023-05-09T06:04:58.755Z,1155.00
2023-05-09T06:05:58.751Z,1146.00
2023-05-09T06:06:58.762Z,1151.00
2023-05-09T06:07:58.776Z,1152.00
2023-05-09T06:08:58.794Z,1147.00
2023-05-09T06:09:58.776Z,1129.00
2023-05-09T06:10:58.851Z,1111.00
2023-05-09T06:11:58.867Z,1109.00
2023-05-09T06:12:58.874Z,1113.00
2023-05-09T06:13:59.324Z,1127.00
2023-05-09T06:14:58.912Z,1125.00
2023-05-09T06:16:07.749Z,1125.00
2023-05-09T06:16:59.925Z,1126.00
2023-05-09T06:17:58.986Z,1121.00
2023-05-09T06:18:58.889Z,1112.00
2023-05-09T06:19:58.893Z,1112.00
2023-05-09T06:20:58.963Z,1110.00
2023-05-09T06:21:58.881Z,1097.00
2023-05-09T06:22:58.838Z,1096.00
2023-05-09T06:24:08.315Z,1094.00
2023-05-09T06:24:59.883Z,1095.00
2023-05-09T06:25:58.851Z,1095.00
2023-05-09T06:26:58.860Z,1096.00
2023-05-09T06:27:58.842Z,1100.00
2023-05-09T06:28:58.805Z,1093.00
2023-05-09T06:29:58.805Z,1088.00
2023-05-09T06:30:58.826Z,1092.00
2023-05-09T06:31:58.859Z,1080.00
2023-05-09T06:32:58.820Z,1075.00
2023-05-09T06:33:58.764Z,1069.00
2023-05-09T06:34:58.768Z,1069.00
2023-05-09T06:35:58.799Z,1087.00
2023-05-09T06:36:58.749Z,1064.00
2023-05-09T06:37:59.294Z,1061.00
2023-05-09T06:38:58.820Z,1041.00
2023-05-09T06:39:58.752Z,1021.00
2023-05-09T06:40:58.758Z,1012.00
2023-05-09T06:41:58.734Z,1028.00
2023-05-09T06:42:58.801Z,1037.00
2023-05-09T06:43:58.813Z,1032.00
2023-05-09T06:44:59.766Z,1032.00
2023-05-09T06:45:58.845Z,1036.00
2023-05-09T06:46:58.825Z,1033.00
2023-05-09T06:47:59.196Z,1038.00
2023-05-09T06:48:59.093Z,1039.00
2023-05-09T06:49:58.866Z,1043.00
2023-05-09T06:50:58.902Z,1047.00
2023-05-09T06:51:59.825Z,1044.00
2023-05-09T06:52:58.927Z,1046.00
2023-05-09T06:53:58.925Z,1047.00
2023-05-09T06:54:59.002Z,1046.00
2023-05-09T06:55:59.007Z,1019.00
2023-05-09T06:56:59.152Z,1017.00
2023-05-09T06:57:59.022Z,964.00
2023-05-09T06:58:59.028Z,957.00
2023-05-09T06:59:59.046Z,935.00
2023-05-09T07:00:59.081Z,911.00
2023-05-09T07:01:59.150Z,909.00
2023-05-09T07:02:59.129Z,905.00
2023-05-09T07:03:59.216Z,903.00
2023-05-09T07:04:59.130Z,913.00
2023-05-09T07:05:59.165Z,919.00
2023-05-09T07:06:59.170Z,934.00
2023-05-09T07:07:59.203Z,961.00
2023-05-09T07:08:59.229Z,953.00
2023-05-09T07:10:10.656Z,949.00
2023-05-09T07:11:00.304Z,951.00
2023-05-09T07:11:59.219Z,954.00
2023-05-09T07:12:59.225Z,951.00
2023-05-09T07:13:59.222Z,937.00
2023-05-09T07:14:59.225Z,915.00
2023-05-09T07:15:59.246Z,922.00
2023-05-09T07:17:13.792Z,916.00
2023-05-09T07:18:00.443Z,917.00
2023-05-09T07:18:59.371Z,924.00
2023-05-09T07:19:59.785Z,931.00
2023-05-09T07:20:59.478Z,950.00
2023-05-09T07:21:59.490Z,961.00
2023-05-09T07:22:59.504Z,977.00
2023-05-09T07:23:59.547Z,982.00
2023-05-09T07:24:59.745Z,975.00
2023-05-09T07:25:59.566Z,995.00
2023-05-09T07:26:59.682Z,1002.00
2023-05-09T07:27:59.723Z,1007.00
2023-05-09T07:28:59.685Z,995.00
2023-05-09T07:29:59.644Z,999.00
2023-05-09T07:30:59.734Z,999.00
2023-05-09T07:31:59.729Z,994.00
2023-05-09T07:32:59.881Z,973.00
2023-05-09T07:33:59.722Z,957.00
2023-05-09T07:34:59.801Z,911.00
2023-05-09T07:36:02.829Z,887.00
2023-05-09T07:36:59.789Z,892.00
2023-05-09T07:37:59.897Z,853.00
2023-05-09T07:38:59.740Z,849.00
2023-05-09T07:39:59.796Z,874.00
2023-05-09T07:40:59.722Z,910.00
2023-05-09T07:41:59.723Z,927.00
2023-05-09T07:42:59.793Z,941.00
2023-05-09T07:43:59.697Z,972.00
2023-05-09T07:44:59.836Z,992.00
2023-05-09T07:45:59.744Z,1001.00
2023-05-09T07:46:59.714Z,1017.00
2023-05-09T07:47:59.771Z,1028.00
2023-05-09T07:48:59.694Z,1033.00
2023-05-09T07:49:59.652Z,1029.00
2023-05-09T07:50:59.865Z,1050.00
2023-05-09T07:51:59.673Z,1042.00
2023-05-09T07:52:59.706Z,1051.00
2023-05-09T07:53:59.642Z,1052.00
2023-05-09T07:54:59.639Z,1075.00
2023-05-09T07:55:59.715Z,1067.00
2023-05-09T07:56:59.622Z,1080.00
2023-05-09T07:57:59.642Z,1099.00
2023-05-09T07:58:59.758Z,1107.00
2023-05-09T07:59:59.620Z,1099.00
2023-05-09T08:00:59.629Z,1104.00
2023-05-09T08:02:00.112Z,1112.00
2023-05-09T08:02:59.891Z,1111.00
2023-05-09T08:03:59.685Z,1125.00
2023-05-09T08:04:59.573Z,1133.00
2023-05-09T08:05:59.572Z,1122.00
2023-05-09T08:06:59.775Z,1127.00
2023-05-09T08:07:59.536Z,1137.00
2023-05-09T08:08:59.579Z,1150.00
2023-05-09T08:09:59.553Z,1154.00
2023-05-09T08:10:59.533Z,1148.00
2023-05-09T08:11:59.497Z,1160.00
2023-05-09T08:12:59.527Z,1147.00
2023-05-09T08:13:59.540Z,1135.00
2023-05-09T08:15:00.400Z,1105.00
2023-05-09T08:15:59.579Z,1102.00
2023-05-09T08:16:59.495Z,1133.00
2023-05-09T08:17:59.529Z,1130.00
2023-05-09T08:18:59.472Z,1152.00
2023-05-09T08:19:59.432Z,1168.00
2023-05-09T08:20:59.654Z,1167.00
2023-05-09T08:21:59.455Z,1171.00
2023-05-09T08:22:59.437Z,1172.00
2023-05-09T08:23:59.509Z,1175.00
2023-05-09T08:24:59.534Z,1174.00
2023-05-09T08:25:59.569Z,1181.00
2023-05-09T08:27:00.389Z,1165.00
2023-05-09T08:27:59.408Z,1175.00
2023-05-09T08:28:59.420Z,1100.00
2023-05-09T08:29:59.363Z,1044.00
2023-05-09T08:30:59.484Z,1031.00
2023-05-09T08:31:59.436Z,1003.00
2023-05-09T08:32:59.443Z,941.00
2023-05-09T08:34:00.418Z,901.00
2023-05-09T08:34:59.378Z,839.00
2023-05-09T08:35:59.387Z,750.00
2023-05-09T08:36:59.332Z,661.00
2023-05-09T08:37:59.388Z,636.00
2023-05-09T08:38:59.406Z,623.00
2023-05-09T08:39:59.322Z,630.00
2023-05-09T08:40:59.345Z,623.00
2023-05-09T08:41:59.379Z,640.00
2023-05-09T08:42:59.283Z,653.00
2023-05-09T08:44:00.808Z,663.00
2023-05-09T08:44:59.272Z,658.00
2023-05-09T08:45:59.525Z,671.00
2023-05-09T08:46:59.410Z,699.00
2023-05-09T08:47:59.284Z,711.00
2023-05-09T08:48:59.233Z,742.00
2023-05-09T08:49:59.271Z,741.00
2023-05-09T08:50:59.213Z,765.00
2023-05-09T08:51:59.242Z,770.00
2023-05-09T08:52:59.215Z,782.00
2023-05-09T08:53:59.328Z,790.00
2023-05-09T08:54:59.309Z,811.00
2023-05-09T08:55:59.217Z,812.00
2023-05-09T08:56:59.204Z,822.00
2023-05-09T08:57:59.230Z,830.00
2023-05-09T08:58:59.283Z,815.00
2023-05-09T08:59:59.202Z,826.00
2023-05-09T09:00:59.264Z,823.00
2023-05-09T09:01:59.326Z,821.00
2023-05-09T09:02:59.422Z,806.00
2023-05-09T09:03:59.294Z,834.00
2023-05-09T09:04:59.551Z,845.00
2023-05-09T09:05:59.397Z,838.00
2023-05-09T09:06:59.464Z,854.00
2023-05-09T09:07:59.878Z,835.00
2023-05-09T09:08:59.436Z,852.00
2023-05-09T09:09:59.437Z,804.00
2023-05-09T09:10:59.488Z,812.00
2023-05-09T09:11:59.598Z,800.00
2023-05-09T09:12:59.489Z,655.00
2023-05-09T09:13:59.562Z,613.00
2023-05-09T09:14:59.658Z,606.00
2023-05-09T09:15:59.735Z,592.00
2023-05-09T09:17:00.492Z,599.00
2023-05-09T09:18:00.010Z,606.00
2023-05-09T09:18:59.701Z,569.00
2023-05-09T09:19:59.653Z,549.00
2023-05-09T09:20:59.710Z,513.00
2023-05-09T09:21:59.709Z,525.00
2023-05-09T09:22:59.742Z,525.00
2023-05-09T09:23:59.765Z,550.00
2023-05-09T09:24:59.757Z,563.00
2023-05-09T09:26:00.281Z,586.00
2023-05-09T09:26:59.861Z,603.00
2023-05-09T09:27:59.859Z,613.00
2023-05-09T09:29:00.029Z,633.00
2023-05-09T09:29:59.909Z,620.00
2023-05-09T09:31:00.854Z,627.00
2023-05-09T09:31:59.983Z,642.00
2023-05-09T09:33:00.027Z,651.00
2023-05-09T09:34:00.004Z,655.00
2023-05-09T09:35:00.065Z,656.00
2023-05-09T09:36:00.178Z,663.00
2023-05-09T09:37:00.181Z,662.00
2023-05-09T09:38:00.389Z,715.00
2023-05-09T09:39:00.195Z,683.00
2023-05-09T09:40:00.219Z,662.00
2023-05-09T09:41:00.183Z,648.00
2023-05-09T09:42:00.876Z,646.00
2023-05-09T09:43:00.161Z,628.00
2023-05-09T09:44:00.295Z,610.00
2023-05-09T09:45:00.213Z,604.00
2023-05-09T09:46:00.344Z,600.00
2023-05-09T09:47:00.296Z,600.00
2023-05-09T09:48:00.389Z,589.00
2023-05-09T09:49:00.302Z,591.00
2023-05-09T09:50:00.397Z,589.00
2023-05-09T09:51:00.488Z,597.00
2023-05-09T09:52:00.432Z,602.00
2023-05-09T09:53:00.458Z,609.00
2023-05-09T09:54:00.484Z,608.00
2023-05-09T09:55:00.512Z,601.00
2023-05-09T09:56:00.570Z,591.00
2023-05-09T09:57:00.574Z,586.00
2023-05-09T09:58:00.571Z,597.00
2023-05-09T09:59:00.592Z,597.00
2023-05-09T10:00:00.620Z,608.00
2023-05-09T10:01:00.622Z,611.00
2023-05-09T10:02:00.601Z,626.00
2023-05-09T10:03:00.711Z,624.00
2023-05-09T10:04:00.776Z,624.00
2023-05-09T10:05:00.671Z,628.00
2023-05-09T10:06:00.735Z,617.00
2023-05-09T10:07:00.809Z,599.00
2023-05-09T10:08:00.783Z,605.00
2023-05-09T10:09:00.865Z,592.00
2023-05-09T10:10:00.865Z,564.00
2023-05-09T10:11:00.860Z,546.00
2023-05-09T10:12:00.990Z,524.00
2023-05-09T10:13:00.961Z,522.00
2023-05-09T10:14:01.013Z,515.00
2023-05-09T10:15:01.002Z,522.00
2023-05-09T10:16:01.234Z,531.00
2023-05-09T10:17:01.195Z,536.00
2023-05-09T10:18:01.382Z,537.00
2023-05-09T10:19:01.208Z,543.00
2023-05-09T10:20:01.166Z,550.00
2023-05-09T10:21:01.218Z,540.00
2023-05-09T10:22:01.267Z,552.00
2023-05-09T10:23:01.346Z,535.00
2023-05-09T10:24:01.294Z,541.00
2023-05-09T10:25:01.313Z,503.00
2023-05-09T10:26:01.395Z,501.00
2023-05-09T10:27:01.387Z,501.00
2023-05-09T10:28:01.433Z,508.00
2023-05-09T10:29:01.516Z,510.00
2023-05-09T10:30:01.502Z,515.00
2023-05-09T10:31:01.582Z,516.00
2023-05-09T10:32:01.559Z,507.00
2023-05-09T10:33:01.598Z,500.00
2023-05-09T10:34:01.701Z,504.00
2023-05-09T10:35:01.687Z,514.00
2023-05-09T10:36:01.713Z,511.00
2023-05-09T10:37:01.783Z,520.00
2023-05-09T10:38:01.840Z,520.00
2023-05-09T10:39:01.892Z,517.00
2023-05-09T10:40:01.964Z,525.00
2023-05-09T10:41:01.842Z,531.00
2023-05-09T10:42:01.932Z,526.00
2023-05-09T10:43:02.006Z,536.00
2023-05-09T10:44:02.075Z,527.00
2023-05-09T10:45:02.018Z,526.00
2023-05-09T10:46:02.068Z,533.00
2023-05-09T10:47:02.228Z,524.00
2023-05-09T10:48:02.188Z,501.00
2023-05-09T10:49:02.190Z,505.00
2023-05-09T10:50:02.256Z,501.00
2023-05-09T10:51:02.295Z,504.00
2023-05-09T10:52:02.325Z,506.00
2023-05-09T10:53:02.389Z,499.00
2023-05-09T10:54:02.437Z,504.00
2023-05-09T10:55:02.545Z,502.00
2023-05-09T10:56:02.450Z,502.00
2023-05-09T10:57:02.458Z,515.00
2023-05-09T10:58:02.515Z,516.00
2023-05-09T10:59:02.531Z,518.00
2023-05-09T11:00:02.550Z,518.00
2023-05-09T11:01:02.577Z,525.00
2023-05-09T11:02:02.707Z,515.00
2023-05-09T11:03:02.691Z,521.00
2023-05-09T11:04:02.720Z,542.00
2023-05-09T11:05:02.725Z,545.00
2023-05-09T11:06:02.766Z,544.00
2023-05-09T11:07:02.780Z,543.00
2023-05-09T11:08:02.833Z,543.00
2023-05-09T11:09:02.860Z,556.00
2023-05-09T11:10:02.919Z,543.00
2023-05-09T11:11:02.981Z,528.00
2023-05-09T11:12:02.923Z,505.00
2023-05-09T11:13:03.370Z,509.00
2023-05-09T11:14:02.977Z,497.00
2023-05-09T11:15:02.982Z,510.00
2023-05-09T11:16:03.103Z,512.00
2023-05-09T11:17:03.061Z,495.00
2023-05-09T11:18:03.145Z,499.00
2023-05-09T11:19:03.111Z,500.00
2023-05-09T11:20:03.189Z,511.00
2023-05-09T11:21:03.180Z,524.00
2023-05-09T11:22:03.247Z,539.00
2023-05-09T11:23:03.348Z,563.00
2023-05-09T11:24:03.310Z,562.00
2023-05-09T11:25:03.362Z,576.00
2023-05-09T11:26:03.428Z,588.00
2023-05-09T11:27:03.500Z,594.00
2023-05-09T11:28:03.436Z,597.00
2023-05-09T11:29:03.522Z,604.00
2023-05-09T11:30:03.492Z,621.00
2023-05-09T11:31:03.555Z,636.00
2023-05-09T11:32:03.590Z,652.00
2023-05-09T11:33:03.638Z,671.00
2023-05-09T11:34:03.639Z,653.00
2023-05-09T11:35:03.636Z,570.00
2023-05-09T11:36:04.354Z,512.00
2023-05-09T11:37:03.704Z,460.00
2023-05-09T11:38:03.751Z,400.00
2023-05-09T11:39:03.887Z,400.00
2023-05-09T11:40:03.834Z,401.00
2023-05-09T11:41:03.833Z,459.00
2023-05-09T11:42:03.893Z,506.00
2023-05-09T11:43:04.136Z,535.00
2023-05-09T11:44:03.962Z,558.00
2023-05-09T11:45:04.005Z,573.00
2023-05-09T11:46:04.098Z,585.00
2023-05-09T11:47:04.084Z,609.00
2023-05-09T11:48:04.204Z,629.00
2023-05-09T11:49:04.211Z,633.00
2023-05-09T11:50:04.210Z,610.00
2023-05-09T11:51:04.270Z,583.00
2023-05-09T11:52:04.244Z,571.00
2023-05-09T11:53:04.340Z,578.00
2023-05-09T11:54:04.380Z,571.00
2023-05-09T11:55:04.439Z,570.00
2023-05-09T11:56:04.446Z,580.00
2023-05-09T11:57:04.457Z,572.00
2023-05-09T11:58:04.573Z,546.00
2023-05-09T11:59:04.605Z,518.00
2023-05-09T12:00:04.589Z,550.00
2023-05-09T12:01:04.580Z,553.00
2023-05-09T12:02:04.684Z,525.00
2023-05-09T12:03:04.816Z,555.00
2023-05-09T12:04:04.775Z,557.00
2023-05-09T12:05:04.766Z,562.00
2023-05-09T12:06:04.849Z,578.00
2023-05-09T12:07:04.833Z,614.00
2023-05-09T12:08:04.903Z,667.00
2023-05-09T12:09:04.892Z,647.00
2023-05-09T12:10:05.917Z,658.00
2023-05-09T12:11:04.981Z,661.00
2023-05-09T12:12:04.989Z,695.00
2023-05-09T12:13:05.087Z,686.00
2023-05-09T12:14:05.080Z,736.00
2023-05-09T12:15:05.161Z,654.00